Time;durP1;ratioP1;P1;durP2;ratioP2;P2;SDS_P1;SDS_P2;PMS_P1;PMS_P2;Temp;Humidity;BMP_temperature;BMP_pressure;BME280_temperature;BME280_humidity;BME280_pressure;Samples;Min_cycle;Max_cycle;Signal;HPM_P1;HPM_P2
2024/01/17 00:00:38;;;;;;;17.00;9.90;;;0.00;99.90;;;;;;5005654;28;20448;-68
2024/01/17 00:03:04;;;;;;;14.02;8.23;;;0.00;99.90;;;;;;5003332;28;20053;-68
2024/01/17 00:05:30;;;;;;;18.60;10.40;;;0.00;99.90;;;;;;5011554;28;20117;-68
2024/01/17 00:07:55;;;;;;;20.00;10.20;;;0.00;99.90;;;;;;5010802;28;20034;-68
2024/01/17 00:10:21;;;;;;;18.20;10.20;;;0.00;99.90;;;;;;4999458;28;20045;-67
2024/01/17 00:12:46;;;;;;;22.40;11.18;;;0.00;99.90;;;;;;5011267;28;20048;-66
2024/01/17 00:15:12;;;;;;;17.52;10.05;;;0.00;99.90;;;;;;5012161;28;20042;-66
2024/01/17 00:17:37;;;;;;;19.73;9.20;;;0.00;99.90;;;;;;5005534;28;20052;-66
2024/01/17 00:20:03;;;;;;;20.30;10.35;;;0.00;99.90;;;;;;4999330;28;20401;-66
2024/01/17 00:22:29;;;;;;;17.67;9.98;;;-0.10;99.90;;;;;;5011429;28;20382;-67
2024/01/17 00:24:54;;;;;;;17.60;10.43;;;-0.10;99.90;;;;;;5004892;28;20046;-70
2024/01/17 00:27:24;;;;;;;21.45;10.98;;;0.00;99.90;;;;;;5004315;28;20042;-66
2024/01/17 00:29:51;;;;;;;22.40;12.18;;;-0.10;99.90;;;;;;5010185;28;20038;-66
2024/01/17 00:32:17;;;;;;;19.33;9.70;;;-0.10;99.90;;;;;;5010411;28;20406;-67
2024/01/17 00:34:42;;;;;;;19.75;11.82;;;0.00;99.90;;;;;;5002192;28;20057;-66
2024/01/17 00:37:09;;;;;;;21.08;11.40;;;-0.10;99.90;;;;;;5006393;28;20049;-66
2024/01/17 00:39:34;;;;;;;21.52;12.95;;;-0.10;99.90;;;;;;5010512;28;20049;-65
2024/01/17 00:42:00;;;;;;;20.35;11.90;;;-0.10;99.90;;;;;;5004481;28;20520;-66
2024/01/17 00:44:28;;;;;;;19.05;11.85;;;-0.10;99.90;;;;;;4996847;28;20042;-66
2024/01/17 00:46:53;;;;;;;21.90;13.27;;;-0.10;99.90;;;;;;5011137;28;20038;-65
2024/01/17 00:49:19;;;;;;;21.88;13.57;;;0.00;99.90;;;;;;5011763;28;20042;-66
2024/01/17 00:51:44;;;;;;;25.23;12.75;;;-0.10;99.90;;;;;;5000739;28;20030;-66
2024/01/17 00:54:10;;;;;;;24.48;13.55;;;-0.10;99.90;;;;;;5006825;28;20048;-67
2024/01/17 00:56:36;;;;;;;26.15;13.10;;;-0.10;99.90;;;;;;5011528;28;20062;-67
2024/01/17 00:59:02;;;;;;;21.05;13.23;;;-0.10;99.90;;;;;;5001793;28;20074;-69
2024/01/17 01:01:28;;;;;;;22.38;13.65;;;-0.20;99.90;;;;;;4995221;28;20089;-66
2024/01/17 01:03:54;;;;;;;20.60;13.38;;;-0.20;99.90;;;;;;5010669;28;20508;-65
2024/01/17 01:06:19;;;;;;;23.20;15.30;;;-0.30;99.90;;;;;;5007450;28;20098;-65
2024/01/17 01:08:45;;;;;;;23.20;15.07;;;-0.30;99.90;;;;;;4999678;28;20046;-65
2024/01/17 01:11:11;;;;;;;21.05;13.13;;;-0.30;99.90;;;;;;5007134;28;20048;-66
2024/01/17 01:13:36;;;;;;;23.25;13.88;;;-0.30;99.90;;;;;;5009849;28;20088;-65
2024/01/17 01:16:03;;;;;;;25.13;15.65;;;-0.40;99.90;;;;;;5005911;28;20073;-68
2024/01/17 01:18:30;;;;;;;20.75;12.52;;;-0.40;99.90;;;;;;5009175;28;20064;-65
2024/01/17 01:20:57;;;;;;;28.83;16.25;;;-0.40;99.90;;;;;;5011341;28;20049;-65
2024/01/17 01:23:24;;;;;;;26.52;14.60;;;-0.50;99.90;;;;;;5007646;28;20786;-69
2024/01/17 01:25:53;;;;;;;23.17;14.15;;;-0.50;99.90;;;;;;5008842;28;20048;-66
2024/01/17 01:28:19;;;;;;;29.35;16.23;;;-0.50;99.90;;;;;;5010979;28;20535;-68
2024/01/17 01:30:44;;;;;;;28.88;16.90;;;-0.50;99.90;;;;;;5011196;28;20128;-65
2024/01/17 01:33:10;;;;;;;27.45;14.32;;;-0.50;99.90;;;;;;4999511;28;20078;-65
2024/01/17 01:35:35;;;;;;;25.27;14.50;;;-0.60;99.90;;;;;;5005964;28;20092;-66
2024/01/17 01:38:01;;;;;;;29.02;15.57;;;-0.50;99.90;;;;;;5009979;28;20138;-67
2024/01/17 01:40:26;;;;;;;28.65;17.65;;;-0.50;99.90;;;;;;5006931;28;20381;-66
2024/01/17 01:42:53;;;;;;;34.88;16.55;;;-0.50;99.90;;;;;;5005607;28;20130;-66
2024/01/17 01:45:19;;;;;;;30.88;16.25;;;-0.50;99.90;;;;;;5010046;28;20086;-68
2024/01/17 01:47:45;;;;;;;23.85;13.57;;;-0.50;99.90;;;;;;5015092;28;20145;-68
2024/01/17 01:50:11;;;;;;;25.30;13.95;;;-0.50;99.90;;;;;;5003393;28;20129;-68
2024/01/17 01:52:40;;;;;;;24.73;14.18;;;-0.40;99.90;;;;;;5006530;28;20030;-65
2024/01/17 01:55:06;;;;;;;30.25;16.83;;;-0.40;99.90;;;;;;5014150;28;20084;-66
2024/01/17 01:57:35;;;;;;;27.10;16.65;;;-0.50;99.90;;;;;;5010398;28;20443;-65
2024/01/17 02:00:04;;;;;;;28.70;16.83;;;-0.50;99.90;;;;;;4995363;28;20045;-67
2024/01/17 02:02:31;;;;;;;26.20;14.60;;;-0.40;99.90;;;;;;5011144;28;20045;-66
2024/01/17 02:04:57;;;;;;;35.13;17.70;;;-0.50;99.90;;;;;;5011390;28;20077;-67
2024/01/17 02:07:25;;;;;;;29.60;18.02;;;-0.40;99.90;;;;;;5000081;28;20037;-67
2024/01/17 02:09:50;;;;;;;29.50;18.85;;;-0.40;99.90;;;;;;5014128;28;20157;-68
2024/01/17 02:12:16;;;;;;;31.23;17.85;;;-0.40;99.90;;;;;;5014033;28;20216;-65
2024/01/17 02:14:41;;;;;;;31.50;19.17;;;-0.40;99.90;;;;;;5009498;28;20471;-68
2024/01/17 02:17:08;;;;;;;30.90;17.52;;;-0.40;99.90;;;;;;4997622;28;20046;-68
2024/01/17 02:19:34;;;;;;;31.35;19.70;;;-0.40;99.90;;;;;;5012785;28;20069;-68
2024/01/17 02:21:59;;;;;;;31.75;19.30;;;-0.40;99.90;;;;;;5014350;28;20037;-68
2024/01/17 02:24:28;;;;;;;30.33;17.67;;;-0.40;99.90;;;;;;5003149;28;20384;-68
2024/01/17 02:26:54;;;;;;;29.83;17.88;;;-0.40;99.90;;;;;;5008947;28;20084;-66
2024/01/17 02:29:20;;;;;;;30.42;19.75;;;-0.40;99.90;;;;;;5006750;28;20049;-67
2024/01/17 02:31:46;;;;;;;29.33;18.85;;;-0.40;99.90;;;;;;5013789;28;20038;-67
2024/01/17 02:34:12;;;;;;;30.02;18.13;;;-0.50;99.90;;;;;;5013496;28;20064;-67
2024/01/17 02:36:38;;;;;;;29.70;16.50;;;-0.40;99.90;;;;;;4999754;28;20121;-67
2024/01/17 02:39:04;;;;;;;31.55;17.52;;;-0.40;99.90;;;;;;5001038;28;20073;-67
2024/01/17 02:41:30;;;;;;;31.95;18.63;;;-0.40;99.90;;;;;;5013067;28;20049;-67
2024/01/17 02:43:56;;;;;;;29.48;17.65;;;-0.50;99.90;;;;;;5003371;28;20050;-67
2024/01/17 02:46:25;;;;;;;32.65;18.10;;;-0.40;99.90;;;;;;4999063;28;20129;-67
2024/01/17 02:48:52;;;;;;;33.60;17.05;;;-0.40;99.90;;;;;;5011995;28;20049;-66
2024/01/17 02:51:17;;;;;;;33.08;18.35;;;-0.50;99.90;;;;;;5013513;28;20485;-67
2024/01/17 02:53:43;;;;;;;30.98;17.15;;;-0.50;99.90;;;;;;5001182;28;20057;-67
2024/01/17 02:56:08;;;;;;;31.50;18.30;;;-0.50;99.90;;;;;;5002813;28;20045;-67
2024/01/17 02:58:34;;;;;;;30.17;17.48;;;-0.50;99.90;;;;;;5011823;28;20044;-67
2024/01/17 03:00:59;;;;;;;30.90;18.52;;;-0.50;99.90;;;;;;5004977;28;20088;-66
2024/01/17 03:03:25;;;;;;;27.58;16.38;;;-0.50;99.90;;;;;;5002076;28;20037;-67
2024/01/17 03:05:50;;;;;;;25.23;16.73;;;-0.50;99.90;;;;;;5013045;28;20093;-67
2024/01/17 03:08:16;;;;;;;30.35;16.98;;;-0.60;99.90;;;;;;5011871;28;20168;-67
2024/01/17 03:10:42;;;;;;;27.80;15.05;;;-0.50;99.90;;;;;;5001646;28;20084;-67
2024/01/17 03:13:08;;;;;;;27.55;15.68;;;-0.60;99.90;;;;;;5012177;28;20048;-67
2024/01/17 03:15:34;;;;;;;30.45;16.70;;;-0.60;99.90;;;;;;5011935;28;20156;-66
2024/01/17 03:18:00;;;;;;;25.60;14.15;;;-0.60;99.90;;;;;;5002796;28;20050;-67
2024/01/17 03:20:25;;;;;;;27.60;16.33;;;-0.60;99.90;;;;;;5012269;28;20392;-66
2024/01/17 03:22:53;;;;;;;31.63;16.05;;;-0.70;99.90;;;;;;5012552;28;20038;-67
2024/01/17 03:25:19;;;;;;;24.60;16.35;;;-0.70;99.90;;;;;;5007968;28;20065;-67
2024/01/17 03:27:45;;;;;;;29.42;15.65;;;-0.70;99.90;;;;;;5005622;28;20038;-67
2024/01/17 03:30:11;;;;;;;31.17;17.27;;;-0.60;99.90;;;;;;5011074;28;20399;-67
2024/01/17 03:32:36;;;;;;;29.40;16.10;;;-0.60;99.90;;;;;;5012818;28;20094;-67
2024/01/17 03:35:02;;;;;;;30.45;17.25;;;-0.70;99.90;;;;;;5003633;28;20404;-66
2024/01/17 03:37:28;;;;;;;23.05;14.20;;;-0.70;99.90;;;;;;5007441;28;20044;-66
2024/01/17 03:39:53;;;;;;;27.10;14.75;;;-0.70;99.90;;;;;;5012341;28;20052;-66
2024/01/17 03:42:19;;;;;;;29.05;15.35;;;-0.70;99.90;;;;;;5012416;28;20056;-67
2024/01/17 03:44:45;;;;;;;25.05;14.82;;;-0.70;99.90;;;;;;5005476;28;20038;-66
2024/01/17 03:47:12;;;;;;;29.42;15.27;;;-0.70;99.90;;;;;;5001556;28;20083;-66
2024/01/17 03:49:38;;;;;;;26.05;14.18;;;-0.70;99.90;;;;;;5012303;28;20064;-66
2024/01/17 03:52:05;;;;;;;25.23;14.20;;;-0.70;99.90;;;;;;4994634;28;20054;-66
2024/01/17 03:54:30;;;;;;;27.80;17.67;;;-0.80;99.90;;;;;;5002226;28;20041;-66
2024/01/17 03:56:56;;;;;;;25.63;14.10;;;-0.80;99.90;;;;;;5010928;28;20037;-66
2024/01/17 03:59:22;;;;;;;27.73;16.15;;;-0.80;99.90;;;;;;5012508;28;20073;-65
2024/01/17 04:01:47;;;;;;;25.83;15.73;;;-0.70;99.90;;;;;;4999025;28;20030;-66
2024/01/17 04:04:13;;;;;;;25.00;13.98;;;-0.70;99.90;;;;;;5008303;28;20064;-68
2024/01/17 04:06:40;;;;;;;21.65;13.02;;;-0.70;99.90;;;;;;5012623;28;20168;-68
2024/01/17 04:09:06;;;;;;;22.42;12.48;;;-0.70;99.90;;;;;;5001583;28;20038;-68
2024/01/17 04:11:31;;;;;;;26.40;14.80;;;-0.70;99.90;;;;;;5011261;28;20038;-68
2024/01/17 04:13:57;;;;;;;26.40;16.80;;;-0.70;99.90;;;;;;5012366;28;20493;-68
2024/01/17 04:16:22;;;;;;;20.85;13.77;;;-0.70;99.90;;;;;;5011303;28;20512;-68
2024/01/17 04:18:48;;;;;;;24.08;13.98;;;-0.70;99.90;;;;;;4998684;28;20041;-68
2024/01/17 04:21:20;;;;;;;23.80;15.52;;;-0.60;99.90;;;;;;5008236;28;20107;-66
2024/01/17 04:23:49;;;;;;;25.05;15.60;;;-0.70;99.90;;;;;;4990228;28;20105;-66
2024/01/17 04:26:23;;;;;;;26.20;14.85;;;-0.70;99.90;;;;;;4997907;28;20056;-66
2024/01/17 04:28:50;;;;;;;26.58;15.32;;;-0.70;99.90;;;;;;5004862;28;20041;-67
2024/01/17 04:31:25;;;;;;;24.10;13.55;;;-0.70;99.90;;;;;;5011807;28;20477;-67
2024/01/17 04:33:52;;;;;;;25.13;14.27;;;-0.60;99.90;;;;;;4998024;28;20053;-66
2024/01/17 04:36:19;;;;;;;22.63;12.40;;;-0.70;99.90;;;;;;5007661;28;20099;-67
2024/01/17 04:38:45;;;;;;;26.10;13.27;;;-0.70;99.90;;;;;;5011871;28;20091;-66
2024/01/17 04:41:12;;;;;;;22.73;13.68;;;-0.60;99.90;;;;;;5001554;28;20046;-67
2024/01/17 04:43:42;;;;;;;22.05;14.07;;;-0.60;99.90;;;;;;4994756;28;20038;-66
2024/01/17 04:46:14;;;;;;;23.60;14.55;;;-0.60;99.90;;;;;;5006048;28;20041;-66
2024/01/17 04:48:41;;;;;;;21.60;14.57;;;-0.60;99.90;;;;;;5002940;28;20571;-66
2024/01/17 04:51:08;;;;;;;23.23;15.35;;;-0.60;99.90;;;;;;5009493;28;20033;-66
2024/01/17 04:53:34;;;;;;;20.60;12.93;;;-0.60;99.90;;;;;;5000561;28;20129;-68
2024/01/17 04:56:01;;;;;;;22.63;14.10;;;-0.60;99.90;;;;;;5005070;28;20137;-65
2024/01/17 04:58:27;;;;;;;22.30;12.77;;;-0.60;99.90;;;;;;5005865;28;20060;-66
2024/01/17 05:00:53;;;;;;;22.88;13.43;;;-0.60;99.90;;;;;;5007241;28;20489;-66
2024/01/17 05:03:19;;;;;;;21.17;12.35;;;-0.70;99.90;;;;;;5009541;28;20178;-66
2024/01/17 05:05:45;;;;;;;23.65;15.60;;;-0.70;99.90;;;;;;4999784;28;20029;-65
2024/01/17 05:08:11;;;;;;;26.08;15.20;;;-0.70;99.90;;;;;;5000179;28;20034;-65
2024/01/17 05:10:37;;;;;;;24.27;14.23;;;-0.70;99.90;;;;;;5010981;28;20045;-66
2024/01/17 05:13:03;;;;;;;24.10;13.55;;;-0.70;99.90;;;;;;5011385;28;20071;-66
2024/01/17 05:15:28;;;;;;;25.42;14.93;;;-0.80;99.90;;;;;;5000693;28;20074;-67
2024/01/17 05:17:54;;;;;;;21.27;12.70;;;-0.70;99.90;;;;;;5008155;28;20060;-67
2024/01/17 05:20:20;;;;;;;30.05;14.02;;;-0.70;99.90;;;;;;5015280;28;20401;-67
2024/01/17 05:22:45;;;;;;;25.73;14.13;;;-0.70;99.90;;;;;;5008987;28;20037;-67
2024/01/17 05:25:11;;;;;;;22.75;14.23;;;-0.80;99.90;;;;;;5010021;28;20574;-66
2024/01/17 05:27:37;;;;;;;21.45;13.00;;;-0.80;99.90;;;;;;5013329;28;20050;-66
2024/01/17 05:30:04;;;;;;;28.35;13.07;;;-0.80;99.90;;;;;;5015092;28;20040;-65
2024/01/17 05:32:29;;;;;;;23.25;13.60;;;-0.90;99.90;;;;;;5002414;28;20112;-66
2024/01/17 05:34:55;;;;;;;25.30;14.57;;;-0.90;99.90;;;;;;5008257;28;20496;-65
2024/01/17 05:37:21;;;;;;;22.05;12.77;;;-0.90;99.90;;;;;;5014813;28;20038;-65
2024/01/17 05:39:47;;;;;;;23.38;14.73;;;-1.00;99.90;;;;;;5016337;28;20374;-68
2024/01/17 05:42:13;;;;;;;22.00;12.88;;;-1.00;99.90;;;;;;5015088;28;20037;-68
2024/01/17 05:44:39;;;;;;;26.13;14.27;;;-1.10;99.90;;;;;;5003494;28;20034;-68
2024/01/17 05:47:05;;;;;;;21.90;13.25;;;-1.10;99.90;;;;;;4992303;28;20039;-68
2024/01/17 05:49:30;;;;;;;26.63;14.73;;;-1.00;99.90;;;;;;5003341;28;20075;-68
2024/01/17 05:51:56;;;;;;;25.95;13.18;;;-1.10;99.90;;;;;;5009836;28;20045;-67
2024/01/17 05:54:21;;;;;;;27.42;16.55;;;-1.20;99.90;;;;;;5011322;28;20507;-66
2024/01/17 05:56:47;;;;;;;21.38;13.52;;;-1.20;99.90;;;;;;5004308;28;20050;-67
2024/01/17 05:59:13;;;;;;;23.58;15.30;;;-1.20;99.90;;;;;;4998534;28;20693;-68
2024/01/17 06:01:39;;;;;;;22.23;13.52;;;-1.20;99.90;;;;;;5004288;28;20601;-67
2024/01/17 06:04:04;;;;;;;24.10;13.48;;;-1.30;99.90;;;;;;4998008;28;20117;-67
2024/01/17 06:06:30;;;;;;;23.92;13.82;;;-1.30;99.90;;;;;;5004497;28;20050;-65
2024/01/17 06:08:55;;;;;;;21.02;11.80;;;-1.30;99.90;;;;;;5003460;28;20042;-65
2024/01/17 06:11:21;;;;;;;27.63;12.93;;;-1.30;99.90;;;;;;5001681;28;20050;-66
2024/01/17 06:13:47;;;;;;;25.40;13.35;;;-1.40;99.90;;;;;;5010783;28;20042;-65
2024/01/17 06:16:12;;;;;;;22.67;13.15;;;-1.40;99.90;;;;;;5010727;28;20045;-66
2024/01/17 06:18:38;;;;;;;28.48;16.27;;;-1.40;99.90;;;;;;5000248;28;20723;-66
2024/01/17 06:21:04;;;;;;;29.65;14.80;;;-1.40;99.90;;;;;;5003864;28;20061;-67
2024/01/17 06:23:29;;;;;;;22.48;12.80;;;-1.40;99.90;;;;;;4993750;28;20057;-66
2024/01/17 06:25:56;;;;;;;26.38;13.73;;;-1.50;99.90;;;;;;5011501;28;20228;-66
2024/01/17 06:28:22;;;;;;;24.65;14.18;;;-1.50;99.90;;;;;;5003391;28;20113;-67
2024/01/17 06:30:48;;;;;;;25.27;12.63;;;-1.50;99.90;;;;;;5005429;28;20124;-66
2024/01/17 06:33:13;;;;;;;25.48;13.82;;;-1.50;99.90;;;;;;5010451;28;20081;-65
2024/01/17 06:35:39;;;;;;;22.52;12.82;;;-1.50;99.90;;;;;;5012884;28;20045;-65
2024/01/17 06:38:05;;;;;;;25.17;13.68;;;-1.50;99.90;;;;;;5007332;28;20041;-68
2024/01/17 06:40:30;;;;;;;21.15;12.52;;;-1.50;99.90;;;;;;4999010;28;20046;-65
2024/01/17 06:42:56;;;;;;;22.83;12.15;;;-1.50;99.90;;;;;;5010519;28;20477;-64
2024/01/17 06:45:21;;;;;;;28.92;13.30;;;-1.50;99.90;;;;;;5012739;28;20129;-65
2024/01/17 06:47:47;;;;;;;23.65;11.90;;;-1.60;99.90;;;;;;5006637;28;20037;-64
2024/01/17 06:50:14;;;;;;;20.75;11.25;;;-1.60;99.90;;;;;;5009702;28;20427;-65
2024/01/17 06:52:39;;;;;;;23.70;11.95;;;-1.60;99.90;;;;;;5011722;28;20053;-64
2024/01/17 06:55:05;;;;;;;22.35;12.75;;;-1.60;99.90;;;;;;5002504;28;20131;-65
2024/01/17 06:57:31;;;;;;;26.33;12.32;;;-1.70;99.90;;;;;;5014790;28;20459;-65
2024/01/17 06:59:56;;;;;;;27.77;12.85;;;-1.70;99.90;;;;;;5013219;28;20126;-66
2024/01/17 07:02:22;;;;;;;21.55;12.45;;;-1.70;99.90;;;;;;5005124;28;20050;-66
2024/01/17 07:04:47;;;;;;;24.52;12.75;;;-1.70;99.90;;;;;;5003474;28;20392;-65
2024/01/17 07:07:13;;;;;;;23.40;10.93;;;-1.70;99.90;;;;;;5013036;28;20218;-66
2024/01/17 07:09:39;;;;;;;25.65;12.15;;;-1.70;99.90;;;;;;5012948;28;20037;-65
2024/01/17 07:12:05;;;;;;;22.67;12.15;;;-1.70;99.90;;;;;;4998148;28;20121;-65
2024/01/17 07:14:31;;;;;;;22.55;12.85;;;-1.80;99.90;;;;;;5010034;28;20034;-67
2024/01/17 07:16:57;;;;;;;22.27;11.45;;;-1.80;99.90;;;;;;5013163;28;20424;-66
2024/01/17 07:19:23;;;;;;;21.00;12.30;;;-1.80;99.90;;;;;;5011337;28;20046;-66
2024/01/17 07:21:48;;;;;;;21.92;13.00;;;-1.80;99.90;;;;;;5002050;28;20030;-66
2024/01/17 07:24:14;;;;;;;21.23;12.15;;;-1.70;99.90;;;;;;5006577;28;20045;-65
2024/01/17 07:26:39;;;;;;;23.05;14.52;;;-1.80;99.90;;;;;;5019881;28;20038;-65
2024/01/17 07:29:05;;;;;;;21.70;12.02;;;-1.80;99.90;;;;;;4998092;28;20034;-66
2024/01/17 07:31:31;;;;;;;22.20;11.95;;;-1.80;99.90;;;;;;5010251;28;20158;-65
2024/01/17 07:33:56;;;;;;;24.13;11.73;;;-1.80;99.90;;;;;;5010866;28;20143;-65
2024/01/17 07:36:22;;;;;;;22.73;11.70;;;-1.80;99.90;;;;;;5012286;28;20041;-65
2024/01/17 07:38:48;;;;;;;25.60;11.95;;;-1.80;99.90;;;;;;5006816;28;20045;-67
2024/01/17 07:41:14;;;;;;;22.17;12.23;;;-1.80;99.90;;;;;;5017721;28;20053;-68
2024/01/17 07:43:39;;;;;;;23.17;12.57;;;-1.80;99.90;;;;;;5010070;28;20042;-67
2024/01/17 07:46:05;;;;;;;23.02;12.25;;;-1.80;99.90;;;;;;5001401;28;20511;-67
2024/01/17 07:48:31;;;;;;;25.60;12.68;;;-1.70;99.90;;;;;;5010695;28;20041;-65
2024/01/17 07:50:57;;;;;;;22.40;12.35;;;-1.70;99.90;;;;;;5012827;28;20041;-65
2024/01/17 07:53:26;;;;;;;18.67;10.63;;;-1.70;99.90;;;;;;5001452;28;20549;-65
2024/01/17 07:55:52;;;;;;;25.23;12.27;;;-1.70;99.90;;;;;;4996103;28;20505;-65
2024/01/17 07:58:18;;;;;;;23.20;12.32;;;-1.70;99.90;;;;;;5008385;28;20117;-65
2024/01/17 08:00:44;;;;;;;20.20;11.32;;;-1.70;99.90;;;;;;5005144;28;20489;-65
2024/01/17 08:03:09;;;;;;;23.35;12.20;;;-1.70;99.90;;;;;;5001273;28;20060;-66
2024/01/17 08:05:35;;;;;;;20.70;10.00;;;-1.70;99.90;;;;;;5010758;28;20045;-65
2024/01/17 08:08:00;;;;;;;21.92;11.98;;;-1.70;99.90;;;;;;5011345;28;20429;-64
2024/01/17 08:10:26;;;;;;;23.25;12.10;;;-1.70;99.90;;;;;;5001993;28;20485;-66
2024/01/17 08:12:51;;;;;;;21.60;11.35;;;-1.70;99.90;;;;;;5006759;28;20038;-65
2024/01/17 08:15:17;;;;;;;20.30;11.20;;;-1.70;99.90;;;;;;5012077;28;20045;-67
2024/01/17 08:17:44;;;;;;;22.05;12.43;;;-1.60;99.90;;;;;;5007257;28;20041;-67
2024/01/17 08:20:12;;;;;;;22.55;11.95;;;-1.60;99.90;;;;;;5006882;28;20073;-66
2024/01/17 08:22:39;;;;;;;20.40;11.35;;;-1.50;99.90;;;;;;5012790;28;20431;-67
2024/01/17 08:25:05;;;;;;;21.40;12.55;;;-1.60;99.90;;;;;;5011805;28;20053;-66
2024/01/17 08:27:30;;;;;;;22.08;11.57;;;-1.50;99.90;;;;;;4998696;28;20038;-67
2024/01/17 08:29:56;;;;;;;22.10;11.57;;;-1.50;99.90;;;;;;5008676;28;20076;-67
2024/01/17 08:32:22;;;;;;;21.50;10.85;;;-1.50;99.90;;;;;;5028262;28;20128;-67
2024/01/17 08:34:47;;;;;;;27.55;13.20;;;-1.40;99.90;;;;;;5017610;28;20535;-68
2024/01/17 08:37:13;;;;;;;27.73;12.93;;;-1.40;99.90;;;;;;5005942;28;20037;-67
2024/01/17 08:39:41;;;;;;;21.98;11.10;;;-1.40;99.90;;;;;;5012425;28;20038;-66
2024/01/17 08:42:07;;;;;;;22.30;12.88;;;-1.40;99.90;;;;;;5010903;28;20034;-66
2024/01/17 08:44:33;;;;;;;22.75;12.48;;;-1.30;99.90;;;;;;4996999;28;20085;-65
2024/01/17 08:46:58;;;;;;;24.05;13.35;;;-1.30;99.90;;;;;;5013238;28;20041;-64
2024/01/17 08:49:24;;;;;;;25.80;12.70;;;-1.30;99.90;;;;;;4999015;28;20463;-65
2024/01/17 08:51:50;;;;;;;29.02;13.07;;;-1.20;99.90;;;;;;4998857;28;20070;-65
2024/01/17 08:54:16;;;;;;;21.92;11.10;;;-1.20;99.90;;;;;;5004766;28;20401;-67
2024/01/17 08:56:42;;;;;;;24.30;13.63;;;-1.20;99.90;;;;;;5017338;28;20037;-68
2024/01/17 08:59:07;;;;;;;23.38;13.15;;;-1.10;99.90;;;;;;5017205;28;20165;-68
2024/01/17 09:01:33;;;;;;;19.70;11.13;;;-1.10;99.90;;;;;;5005003;28;20048;-67
2024/01/17 09:03:59;;;;;;;18.08;10.43;;;-1.10;99.90;;;;;;4999626;28;20043;-65
2024/01/17 09:06:24;;;;;;;22.60;12.18;;;-1.10;99.90;;;;;;5020968;28;20045;-65
2024/01/17 09:08:50;;;;;;;20.52;11.35;;;-1.00;99.90;;;;;;5002755;28;20087;-67
2024/01/17 09:11:15;;;;;;;23.40;12.75;;;-1.00;99.90;;;;;;5013501;28;20069;-66
2024/01/17 09:13:42;;;;;;;19.42;11.35;;;-1.00;99.90;;;;;;5015189;28;20129;-65
2024/01/17 09:16:07;;;;;;;20.75;11.75;;;-1.00;99.90;;;;;;5011282;28;20479;-67
2024/01/17 09:18:33;;;;;;;23.13;12.10;;;-0.90;99.90;;;;;;5013667;28;20520;-66
2024/01/17 09:20:59;;;;;;;25.40;14.57;;;-0.90;99.90;;;;;;5017652;28;20041;-65
2024/01/17 09:23:24;;;;;;;23.60;13.77;;;-0.90;99.90;;;;;;5014915;28;20489;-66
2024/01/17 09:25:50;;;;;;;21.92;12.82;;;-0.90;99.90;;;;;;5002656;28;20030;-66
2024/01/17 09:28:15;;;;;;;26.75;13.18;;;-0.80;99.90;;;;;;5009941;28;20099;-66
2024/01/17 09:30:41;;;;;;;22.50;11.88;;;-0.80;99.90;;;;;;5015334;28;20560;-66
2024/01/17 09:33:06;;;;;;;24.15;13.25;;;-0.70;99.90;;;;;;5007387;28;20938;-65
2024/01/17 09:35:35;;;;;;;20.00;10.48;;;-0.70;99.90;;;;;;5001517;28;20053;-66
2024/01/17 09:38:01;;;;;;;22.27;11.48;;;-0.70;99.90;;;;;;5021377;28;20055;-65
2024/01/17 09:40:27;;;;;;;22.95;13.45;;;-0.60;99.90;;;;;;5030997;28;20041;-66
2024/01/17 09:42:53;;;;;;;23.23;12.75;;;-0.60;99.90;;;;;;5002449;28;20048;-67
2024/01/17 09:45:21;;;;;;;26.38;13.65;;;-0.60;99.90;;;;;;5011786;28;20044;-68
2024/01/17 09:47:51;;;;;;;25.58;13.38;;;-0.60;99.90;;;;;;5013661;28;20041;-69
2024/01/17 09:50:17;;;;;;;28.65;13.23;;;-0.50;99.90;;;;;;5012837;28;20046;-67
2024/01/17 09:52:43;;;;;;;24.00;13.38;;;-0.50;99.90;;;;;;5000392;28;20052;-68
2024/01/17 09:55:09;;;;;;;24.02;12.05;;;-0.50;99.90;;;;;;5012085;28;20045;-67
2024/01/17 09:57:41;;;;;;;22.80;12.43;;;-0.40;99.90;;;;;;5005810;28;20049;-65
2024/01/17 10:00:10;;;;;;;23.65;12.70;;;-0.40;99.90;;;;;;5008740;28;20547;-66
2024/01/17 10:02:38;;;;;;;23.38;13.05;;;-0.40;99.90;;;;;;5000464;28;20121;-65
2024/01/17 10:05:09;;;;;;;23.23;12.82;;;-0.30;99.90;;;;;;5007872;28;20041;-66
2024/01/17 10:07:38;;;;;;;24.35;12.00;;;-0.40;99.90;;;;;;5013677;28;20092;-66
2024/01/17 10:10:04;;;;;;;23.98;12.10;;;-0.40;99.90;;;;;;5011476;28;20041;-65
2024/01/17 10:12:30;;;;;;;23.40;12.50;;;-0.30;99.90;;;;;;5012308;28;20038;-65
2024/01/17 10:14:56;;;;;;;27.67;13.48;;;-0.40;99.90;;;;;;5008381;28;20073;-64
2024/01/17 10:17:21;;;;;;;27.48;13.18;;;-0.30;99.90;;;;;;5007630;28;20392;-65
2024/01/17 10:19:47;;;;;;;25.33;12.27;;;-0.30;99.90;;;;;;5013796;28;20108;-66
2024/01/17 10:22:13;;;;;;;25.35;12.82;;;-0.30;99.90;;;;;;5009626;28;20045;-66
2024/01/17 10:24:39;;;;;;;25.80;13.32;;;-0.30;99.90;;;;;;4997317;28;20084;-66
2024/01/17 10:27:09;;;;;;;24.00;11.43;;;-0.20;99.90;;;;;;5012711;28;20082;-67
2024/01/17 10:29:39;;;;;;;22.73;12.85;;;-0.20;99.90;;;;;;5012711;28;20179;-66
2024/01/17 10:32:05;;;;;;;22.35;13.70;;;-0.20;99.90;;;;;;4996249;28;20497;-66
2024/01/17 10:34:31;;;;;;;23.38;12.38;;;-0.10;99.90;;;;;;5004776;28;20038;-66
2024/01/17 10:36:58;;;;;;;24.10;13.57;;;-0.10;99.90;;;;;;5012001;28;20046;-65
2024/01/17 10:39:25;;;;;;;24.05;12.88;;;-0.20;99.90;;;;;;5009918;28;20069;-68
2024/01/17 10:41:54;;;;;;;19.52;10.57;;;-0.20;99.90;;;;;;5002202;28;20041;-68
2024/01/17 10:44:20;;;;;;;22.45;12.07;;;-0.10;99.90;;;;;;5010466;28;20045;-68
2024/01/17 10:46:52;;;;;;;20.67;11.68;;;-0.20;99.90;;;;;;5009374;28;20404;-67
2024/01/17 10:49:19;;;;;;;23.33;12.95;;;-0.10;99.90;;;;;;4997628;28;20080;-67
2024/01/17 10:52:13;;;;;;;19.67;11.38;;;0.00;99.90;;;;;;4997749;28;20482;-68
2024/01/17 10:54:50;;;;;;;24.50;13.30;;;-0.10;99.90;;;;;;5014173;28;20038;-66
2024/01/17 10:57:19;;;;;;;26.15;13.80;;;0.00;99.90;;;;;;5012554;28;20126;-66
2024/01/17 10:59:49;;;;;;;23.60;13.65;;;0.00;99.90;;;;;;5008810;28;20173;-67
2024/01/17 11:02:20;;;;;;;19.27;11.27;;;0.00;99.90;;;;;;4999317;28;20408;-66
2024/01/17 11:04:52;;;;;;;22.77;11.55;;;0.00;99.90;;;;;;4997458;28;20034;-68
2024/01/17 11:07:18;;;;;;;20.13;11.55;;;0.00;99.90;;;;;;5007710;28;20073;-67
2024/01/17 11:09:46;;;;;;;20.88;12.05;;;0.10;99.90;;;;;;4998785;28;20074;-68
2024/01/17 11:12:14;;;;;;;23.73;13.93;;;0.10;99.90;;;;;;5001279;28;20504;-68
2024/01/17 11:14:42;;;;;;;21.70;12.07;;;0.20;99.90;;;;;;5011500;28;20034;-68
2024/01/17 11:17:08;;;;;;;24.45;12.52;;;0.20;99.90;;;;;;5001574;28;20561;-68
2024/01/17 11:19:36;;;;;;;23.77;13.35;;;0.30;99.90;;;;;;5011694;28;20042;-68
2024/01/17 11:22:02;;;;;;;21.50;12.52;;;0.20;99.90;;;;;;4997396;28;20062;-65
2024/01/17 11:24:55;;;;;;;25.50;14.27;;;0.30;99.90;;;;;;5001428;28;20053;-65
2024/01/17 11:27:42;;;;;;;22.13;12.07;;;0.20;99.90;;;;;;5005157;28;20037;-65
2024/01/17 11:30:26;;;;;;;26.10;11.77;;;0.30;99.90;;;;;;5010832;28;20049;-65
2024/01/17 11:33:10;;;;;;;25.75;11.60;;;0.40;99.90;;;;;;5010827;28;20121;-65
2024/01/17 11:35:40;;;;;;;24.67;12.43;;;0.40;99.90;;;;;;5004812;28;20048;-66
2024/01/17 11:38:14;;;;;;;22.40;11.93;;;0.40;99.90;;;;;;4998024;28;20088;-66
2024/01/17 11:40:40;;;;;;;20.13;11.07;;;0.40;99.90;;;;;;5001252;28;20042;-66
2024/01/17 11:43:08;;;;;;;22.35;11.75;;;0.40;99.90;;;;;;5011923;28;20042;-68
2024/01/17 11:45:36;;;;;;;25.45;12.48;;;0.40;99.90;;;;;;5016478;28;20037;-66
2024/01/17 11:48:32;;;;;;;23.20;11.90;;;0.40;99.90;;;;;;5014997;28;20034;-65
2024/01/17 11:51:14;;;;;;;22.92;11.85;;;0.40;99.90;;;;;;5005742;28;20053;-65
2024/01/17 11:53:46;;;;;;;23.05;11.75;;;0.50;99.90;;;;;;5010378;28;20042;-65
2024/01/17 11:56:13;;;;;;;23.30;12.63;;;0.40;99.90;;;;;;4998665;28;20505;-65
2024/01/17 11:58:47;;;;;;;21.90;11.90;;;0.40;99.90;;;;;;5010410;28;20045;-65
2024/01/17 12:01:22;;;;;;;25.73;13.10;;;0.40;99.90;;;;;;5012302;28;20444;-65
2024/01/17 12:03:49;;;;;;;23.88;12.82;;;0.30;99.90;;;;;;4998866;28;20042;-65
2024/01/17 12:06:16;;;;;;;26.33;13.00;;;0.40;99.90;;;;;;5007830;28;20038;-65
2024/01/17 12:08:42;;;;;;;22.60;11.98;;;0.40;99.90;;;;;;5010968;28;20049;-65
2024/01/17 12:11:08;;;;;;;23.73;11.65;;;0.40;99.90;;;;;;4995898;28;20424;-65
2024/01/17 12:13:38;;;;;;;24.83;12.23;;;0.40;99.90;;;;;;4999474;28;20043;-66
2024/01/17 12:16:05;;;;;;;20.77;11.32;;;0.50;99.90;;;;;;5011509;28;20045;-66
2024/01/17 12:18:31;;;;;;;20.98;12.80;;;0.40;99.90;;;;;;5011911;28;20069;-66
2024/01/17 12:21:04;;;;;;;22.17;11.88;;;0.50;99.90;;;;;;5002511;28;20046;-66
2024/01/17 12:23:31;;;;;;;23.80;11.25;;;0.50;99.90;;;;;;4998464;28;20053;-66
2024/01/17 12:25:59;;;;;;;19.42;11.30;;;0.60;99.90;;;;;;5020740;28;20041;-66